Terminal Aerodrome Forecast
Issued by NWS

Current Version | Previous Version | Text Only | Print | Product List | Glossary Off
Versions: 1 2 3 4 5 6 7 8 9 10 11 12 13 14 15 16 17 18 19 20 21 22 23 24

000
FTUS41 KPBZ 241100
TAFHLG
TAF
KHLG 241137Z 2412/2512 32004KT 5SM BR SCT007 OVC100
     FM241300 32003KT 3SM BR OVC008
     FM242000 26009KT 4SM -SHSN OVC015=

USA.gov is the U.S. government's official web portal to all federal, state and local government web resources and services.